Time;durP1;ratioP1;P1;durP2;ratioP2;P2;SDS_P1;SDS_P2;PMS_P1;PMS_P2;Temp;Humidity;BMP_temperature;BMP_pressure;BME280_temperature;BME280_humidity;BME280_pressure;Samples;Min_cycle;Max_cycle;Signal;HPM_P1;HPM_P2
2023/12/08 00:02:08;;;;;;;83.72;21.02;;;;;;;;;;5147172;27;20027;-56
2023/12/08 00:04:34;;;;;;;76.07;18.90;;;;;;;;;;5115129;27;20042;-56
2023/12/08 00:07:01;;;;;;;65.45;16.05;;;;;;;;;;5123458;27;20036;-56
2023/12/08 00:09:28;;;;;;;89.07;14.98;;;;;;;;;;5133763;27;20086;-55
2023/12/08 00:11:57;;;;;;;59.70;15.25;;;;;;;;;;5128777;27;20042;-58
2023/12/08 00:14:24;;;;;;;336.55;306.33;;;;;;;;;;5133672;27;20077;-62
2023/12/08 00:16:51;;;;;;;66.10;35.95;;;;;;;;;;5115206;28;20023;-58
2023/12/08 00:19:17;;;;;;;57.47;19.25;;;;;;;;;;5106431;28;20077;-55
2023/12/08 00:21:44;;;;;;;45.92;16.83;;;;;;;;;;5123615;27;20059;-55
2023/12/08 00:24:11;;;;;;;32.22;13.75;;;;;;;;;;5125031;27;20027;-59
2023/12/08 00:26:38;;;;;;;42.10;17.58;;;;;;;;;;5121693;28;20362;-56
2023/12/08 00:29:04;;;;;;;40.58;16.50;;;;;;;;;;5126498;28;20023;-61
2023/12/08 00:31:31;;;;;;;32.13;16.63;;;;;;;;;;5125787;28;20015;-58
2023/12/08 01:24:44;;;;;;;43.00;21.52;;;;;;;;;;5141758;27;20411;-61
2023/12/08 01:27:11;;;;;;;48.40;24.45;;;;;;;;;;5141883;28;20075;-55
2023/12/08 01:29:37;;;;;;;40.97;22.05;;;;;;;;;;5141737;28;20205;-56
2023/12/08 01:32:06;;;;;;;49.88;18.23;;;;;;;;;;5141535;28;20042;-55
2023/12/08 01:34:33;;;;;;;36.70;15.65;;;;;;;;;;5141620;28;20075;-55
2023/12/08 01:36:59;;;;;;;31.58;13.90;;;;;;;;;;5139376;27;20082;-57
2023/12/08 01:39:27;;;;;;;37.58;15.20;;;;;;;;;;5141445;28;20011;-56
2023/12/08 01:41:54;;;;;;;35.15;16.25;;;;;;;;;;5141609;28;20024;-55
2023/12/08 01:44:21;;;;;;;27.70;13.05;;;;;;;;;;5139253;28;20038;-58
2023/12/08 01:46:48;;;;;;;27.92;16.17;;;;;;;;;;5138596;28;20003;-56
2023/12/08 01:49:15;;;;;;;42.72;18.80;;;;;;;;;;5141318;28;20329;-64
2023/12/08 01:51:43;;;;;;;38.83;16.60;;;;;;;;;;5139831;27;20133;-58
2023/12/08 01:54:10;;;;;;;30.42;18.73;;;;;;;;;;5141529;28;20031;-65
2023/12/08 01:56:37;;;;;;;29.42;17.92;;;;;;;;;;5140768;28;20031;-64
2023/12/08 01:59:04;;;;;;;23.63;14.10;;;;;;;;;;5141285;28;20019;-59
2023/12/08 02:01:31;;;;;;;22.85;12.68;;;;;;;;;;5140070;28;20034;-58
2023/12/08 02:03:57;;;;;;;20.13;11.95;;;;;;;;;;5140912;28;20090;-58
2023/12/08 02:06:24;;;;;;;22.40;11.57;;;;;;;;;;5141090;28;20022;-59
2023/12/08 02:08:51;;;;;;;24.25;12.35;;;;;;;;;;5141402;28;20015;-59
2023/12/08 02:11:18;;;;;;;29.00;13.73;;;;;;;;;;5140862;28;20026;-62
2023/12/08 02:13:45;;;;;;;21.77;11.52;;;;;;;;;;5140926;28;20027;-59
2023/12/08 02:16:24;;;;;;;22.73;10.30;;;;;;;;;;5140592;28;20034;-57
2023/12/08 02:18:51;;;;;;;22.02;9.77;;;;;;;;;;5141779;27;20038;-61
2023/12/08 02:21:18;;;;;;;19.58;10.75;;;;;;;;;;5141076;28;20016;-58
2023/12/08 02:23:49;;;;;;;20.15;12.82;;;;;;;;;;5137725;28;20043;-59
2023/12/08 02:26:17;;;;;;;20.35;12.65;;;;;;;;;;5127478;28;20277;-61
2023/12/08 02:28:44;;;;;;;21.73;13.45;;;;;;;;;;5127670;28;20020;-60
2023/12/08 02:31:12;;;;;;;19.45;12.32;;;;;;;;;;5127177;28;20039;-59
2023/12/08 02:33:39;;;;;;;27.63;14.05;;;;;;;;;;5127636;28;20245;-58
2023/12/08 02:36:06;;;;;;;20.05;14.18;;;;;;;;;;5127140;28;20319;-59
2023/12/08 02:38:34;;;;;;;23.90;13.80;;;;;;;;;;5127381;28;20365;-61
2023/12/08 02:41:00;;;;;;;21.83;12.75;;;;;;;;;;5127059;28;20026;-61
2023/12/08 02:43:27;;;;;;;21.98;13.70;;;;;;;;;;5127322;28;20105;-60
2023/12/08 02:45:54;;;;;;;23.95;15.50;;;;;;;;;;5127147;28;20068;-59
2023/12/08 02:48:20;;;;;;;25.70;15.05;;;;;;;;;;5127233;28;20058;-59
2023/12/08 02:50:47;;;;;;;27.52;15.13;;;;;;;;;;5126909;28;20020;-59
2023/12/08 02:53:14;;;;;;;27.13;16.17;;;;;;;;;;5126965;28;20058;-58
2023/12/08 02:55:40;;;;;;;29.05;15.88;;;;;;;;;;5126755;28;20360;-57
2023/12/08 02:58:07;;;;;;;30.85;15.70;;;;;;;;;;5127127;28;20341;-62
2023/12/08 03:00:35;;;;;;;31.25;15.65;;;;;;;;;;5118656;28;20090;-48
2023/12/08 03:03:01;;;;;;;26.55;15.73;;;;;;;;;;5123793;28;20028;-51
2023/12/08 03:05:28;;;;;;;28.33;14.93;;;;;;;;;;5123642;28;20024;-50
2023/12/08 03:07:56;;;;;;;26.08;13.52;;;;;;;;;;5126727;28;20031;-52
2023/12/08 03:10:23;;;;;;;19.20;12.55;;;;;;;;;;5126589;28;20081;-55
2023/12/08 03:12:50;;;;;;;24.58;11.23;;;;;;;;;;5126513;28;20028;-56
2023/12/08 03:15:16;;;;;;;17.83;10.98;;;;;;;;;;5126199;28;20214;-53
2023/12/08 03:17:43;;;;;;;22.35;12.40;;;;;;;;;;5126693;28;20031;-55
2023/12/08 03:20:10;;;;;;;19.55;13.18;;;;;;;;;;5126356;28;20087;-54
2023/12/08 03:22:37;;;;;;;22.52;13.02;;;;;;;;;;5112106;28;20281;-55
2023/12/08 03:25:04;;;;;;;22.95;12.18;;;;;;;;;;5113763;28;20027;-52
2023/12/08 03:27:30;;;;;;;19.35;11.70;;;;;;;;;;5109112;28;20024;-53
2023/12/08 03:29:58;;;;;;;15.30;10.75;;;;;;;;;;5105475;28;20020;-51
2023/12/08 03:32:25;;;;;;;17.95;9.70;;;;;;;;;;5112523;28;20031;-53
2023/12/08 03:34:52;;;;;;;23.65;9.07;;;;;;;;;;5110064;28;20028;-51
2023/12/08 03:37:19;;;;;;;21.25;8.95;;;;;;;;;;5106511;28;20085;-49
2023/12/08 03:39:45;;;;;;;21.50;10.00;;;;;;;;;;5105493;28;20020;-49
2023/12/08 03:42:12;;;;;;;12.65;9.20;;;;;;;;;;5105364;28;20360;-53
2023/12/08 03:44:39;;;;;;;22.30;10.27;;;;;;;;;;5105303;28;20039;-51
2023/12/08 03:47:05;;;;;;;16.63;9.63;;;;;;;;;;5105393;28;20058;-50
2023/12/08 03:49:32;;;;;;;18.88;10.23;;;;;;;;;;5105553;28;20020;-52
2023/12/08 03:51:59;;;;;;;20.17;9.50;;;;;;;;;;5105162;28;20027;-50
2023/12/08 03:54:25;;;;;;;14.55;9.02;;;;;;;;;;5105203;28;20027;-52
2023/12/08 03:56:52;;;;;;;18.83;8.30;;;;;;;;;;5105110;28;20012;-50
2023/12/08 03:59:20;;;;;;;15.38;7.95;;;;;;;;;;5105074;28;20038;-55
2023/12/08 04:01:46;;;;;;;14.68;6.97;;;;;;;;;;5105025;28;20024;-53
2023/12/08 04:04:13;;;;;;;15.70;7.18;;;;;;;;;;5113986;28;20257;-51
2023/12/08 04:06:40;;;;;;;14.02;6.57;;;;;;;;;;5124834;28;20027;-55
2023/12/08 04:09:06;;;;;;;10.85;6.15;;;;;;;;;;5125893;28;20031;-53
2023/12/08 04:11:33;;;;;;;15.68;5.93;;;;;;;;;;5125314;28;20101;-50
2023/12/08 04:14:00;;;;;;;14.18;5.97;;;;;;;;;;5125110;28;20039;-53
2023/12/08 04:16:26;;;;;;;12.77;5.70;;;;;;;;;;5125177;28;20246;-52
2023/12/08 04:18:53;;;;;;;11.20;5.50;;;;;;;;;;5125565;28;20069;-55
2023/12/08 04:21:20;;;;;;;11.00;5.25;;;;;;;;;;5125088;28;20065;-56
2023/12/08 04:23:46;;;;;;;10.23;5.65;;;;;;;;;;5124813;28;20103;-53
2023/12/08 04:26:13;;;;;;;9.73;5.53;;;;;;;;;;5125145;28;20215;-53
2023/12/08 04:28:40;;;;;;;10.80;5.38;;;;;;;;;;5125397;28;20044;-50
2023/12/08 04:31:07;;;;;;;10.25;5.22;;;;;;;;;;5124833;28;20020;-52
2023/12/08 04:33:34;;;;;;;7.57;4.88;;;;;;;;;;5125352;28;20383;-53
2023/12/08 04:36:00;;;;;;;8.60;4.82;;;;;;;;;;5124876;28;20042;-55
2023/12/08 04:38:27;;;;;;;6.50;4.80;;;;;;;;;;5125056;28;20072;-51
2023/12/08 04:40:54;;;;;;;10.02;4.95;;;;;;;;;;5124847;28;20019;-54
2023/12/08 04:43:20;;;;;;;6.60;4.50;;;;;;;;;;5125091;28;20062;-50
2023/12/08 04:45:47;;;;;;;8.55;4.68;;;;;;;;;;5124904;28;20289;-50
2023/12/08 04:48:14;;;;;;;9.00;5.07;;;;;;;;;;5124737;28;20023;-54
2023/12/08 04:50:40;;;;;;;8.93;4.85;;;;;;;;;;5124793;28;20327;-48
2023/12/08 04:53:07;;;;;;;13.18;5.22;;;;;;;;;;5124722;28;20035;-50
2023/12/08 04:55:34;;;;;;;7.82;5.20;;;;;;;;;;5124079;28;20023;-52
2023/12/08 04:58:01;;;;;;;11.93;4.97;;;;;;;;;;5108693;28;20032;-50
2023/12/08 05:00:27;;;;;;;8.13;4.53;;;;;;;;;;5107461;28;20019;-52
2023/12/08 05:02:57;;;;;;;8.68;5.00;;;;;;;;;;5124660;28;20180;-58
2023/12/08 05:05:24;;;;;;;7.70;5.18;;;;;;;;;;5124665;28;20031;-51
2023/12/08 05:07:51;;;;;;;8.95;5.43;;;;;;;;;;5124587;28;20265;-49
2023/12/08 05:10:19;;;;;;;9.85;5.60;;;;;;;;;;5124554;28;20046;-48
2023/12/08 05:12:45;;;;;;;11.32;6.00;;;;;;;;;;5124690;28;20027;-47
2023/12/08 05:15:12;;;;;;;11.60;5.72;;;;;;;;;;5124171;28;20023;-51
2023/12/08 05:17:40;;;;;;;8.70;5.22;;;;;;;;;;5124515;28;20128;-53
2023/12/08 05:20:07;;;;;;;6.78;4.78;;;;;;;;;;5124296;28;20062;-50
2023/12/08 05:22:33;;;;;;;9.18;5.22;;;;;;;;;;5124057;28;20058;-53
2023/12/08 05:25:00;;;;;;;6.60;4.50;;;;;;;;;;5124348;28;20042;-52
2023/12/08 05:27:27;;;;;;;7.60;4.72;;;;;;;;;;5124550;28;20038;-51
2023/12/08 05:29:53;;;;;;;7.97;4.30;;;;;;;;;;5124182;28;20330;-55
2023/12/08 05:32:20;;;;;;;6.88;4.65;;;;;;;;;;5124465;28;20035;-52
2023/12/08 05:34:47;;;;;;;10.27;4.93;;;;;;;;;;5124269;28;20036;-54
2023/12/08 05:37:13;;;;;;;7.05;4.53;;;;;;;;;;5124103;28;20051;-51
2023/12/08 05:39:40;;;;;;;5.97;4.32;;;;;;;;;;5124287;28;20019;-50
2023/12/08 05:42:07;;;;;;;7.30;4.65;;;;;;;;;;5124048;28;20297;-49
2023/12/08 05:44:33;;;;;;;5.40;3.85;;;;;;;;;;5123886;28;20315;-52
2023/12/08 05:47:01;;;;;;;4.88;3.70;;;;;;;;;;5124079;28;20020;-56
2023/12/08 05:49:28;;;;;;;5.85;4.28;;;;;;;;;;5124184;28;20024;-52
2023/12/08 05:51:55;;;;;;;6.63;3.88;;;;;;;;;;5123861;28;20020;-52
2023/12/08 05:54:21;;;;;;;6.30;4.00;;;;;;;;;;5124002;28;20038;-55
2023/12/08 05:56:49;;;;;;;5.97;3.85;;;;;;;;;;5123910;28;20027;-55
2023/12/08 05:59:15;;;;;;;6.43;4.20;;;;;;;;;;5124836;28;20024;-52
2023/12/08 06:01:42;;;;;;;6.43;3.72;;;;;;;;;;5127927;28;20211;-54
2023/12/08 06:04:09;;;;;;;6.60;3.72;;;;;;;;;;5128285;28;20043;-51
2023/12/08 06:06:35;;;;;;;7.32;4.03;;;;;;;;;;5127803;28;20329;-53
2023/12/08 06:09:02;;;;;;;6.82;3.60;;;;;;;;;;5128105;28;20307;-51
2023/12/08 06:11:29;;;;;;;6.10;3.75;;;;;;;;;;5127682;28;20031;-51
2023/12/08 06:13:55;;;;;;;4.60;3.20;;;;;;;;;;5128079;28;20076;-53
2023/12/08 06:16:22;;;;;;;6.22;3.75;;;;;;;;;;5127485;28;20319;-56
2023/12/08 06:18:49;;;;;;;4.35;3.20;;;;;;;;;;5127948;28;20166;-49
2023/12/08 06:21:17;;;;;;;6.28;3.30;;;;;;;;;;5127595;28;20023;-50
2023/12/08 06:23:43;;;;;;;5.95;3.08;;;;;;;;;;5127155;28;20075;-51
2023/12/08 06:26:10;;;;;;;4.45;2.85;;;;;;;;;;5127342;28;20372;-49
2023/12/08 06:28:37;;;;;;;4.90;3.15;;;;;;;;;;5127713;28;20024;-49
2023/12/08 06:31:03;;;;;;;4.47;2.92;;;;;;;;;;5127526;28;20015;-52
2023/12/08 06:33:30;;;;;;;4.72;2.92;;;;;;;;;;5127684;28;20061;-52
2023/12/08 06:35:57;;;;;;;5.57;3.05;;;;;;;;;;5127253;28;20028;-50
2023/12/08 06:38:23;;;;;;;5.57;2.92;;;;;;;;;;5127392;28;20032;-48
2023/12/08 06:40:50;;;;;;;8.32;3.17;;;;;;;;;;5127125;28;20227;-48
2023/12/08 06:43:17;;;;;;;6.03;3.03;;;;;;;;;;5126891;28;20034;-50
2023/12/08 06:45:43;;;;;;;6.30;3.25;;;;;;;;;;5126862;28;20019;-49
2023/12/08 06:48:11;;;;;;;5.28;2.92;;;;;;;;;;5122852;28;20028;-52
2023/12/08 06:50:38;;;;;;;7.53;3.33;;;;;;;;;;5115537;28;20212;-47
2023/12/08 06:53:05;;;;;;;6.13;2.95;;;;;;;;;;5106656;28;20035;-50
2023/12/08 06:55:31;;;;;;;8.43;3.00;;;;;;;;;;5106563;28;20036;-53
2023/12/08 06:57:58;;;;;;;4.38;3.00;;;;;;;;;;5106611;28;20207;-48
2023/12/08 07:00:25;;;;;;;7.43;2.92;;;;;;;;;;5106247;28;20023;-53
2023/12/08 07:02:51;;;;;;;5.63;2.80;;;;;;;;;;5106407;28;20060;-52
2023/12/08 07:05:19;;;;;;;6.35;2.50;;;;;;;;;;5106356;28;20083;-50
2023/12/08 07:07:47;;;;;;;8.90;3.17;;;;;;;;;;5106399;28;20083;-48
2023/12/08 07:10:15;;;;;;;9.18;3.05;;;;;;;;;;5106173;28;20035;-50
2023/12/08 07:12:42;;;;;;;5.70;2.38;;;;;;;;;;5106213;28;20027;-49
2023/12/08 07:15:10;;;;;;;8.88;2.67;;;;;;;;;;5105802;28;20027;-49
2023/12/08 07:17:37;;;;;;;10.82;3.00;;;;;;;;;;5106183;28;20028;-56
2023/12/08 07:20:06;;;;;;;4.68;2.63;;;;;;;;;;5106027;28;20048;-52
2023/12/08 07:22:33;;;;;;;7.47;2.65;;;;;;;;;;5105659;28;20020;-54
2023/12/08 07:25:00;;;;;;;5.40;2.55;;;;;;;;;;5105874;28;20016;-52
2023/12/08 07:27:27;;;;;;;3.17;2.20;;;;;;;;;;5105763;28;20024;-57
2023/12/08 07:29:54;;;;;;;7.03;2.95;;;;;;;;;;5105630;28;20300;-55
2023/12/08 07:32:20;;;;;;;6.82;2.67;;;;;;;;;;5105755;28;20040;-54
2023/12/08 07:34:47;;;;;;;4.80;2.58;;;;;;;;;;5105653;28;20083;-52
2023/12/08 07:37:13;;;;;;;5.90;3.00;;;;;;;;;;5105540;28;20232;-54
2023/12/08 07:39:40;;;;;;;8.20;2.70;;;;;;;;;;5105672;28;20027;-52
2023/12/08 07:42:07;;;;;;;4.97;2.47;;;;;;;;;;5105512;28;20304;-50
2023/12/08 07:44:35;;;;;;;5.63;2.72;;;;;;;;;;5105592;28;20031;-57
2023/12/08 07:47:01;;;;;;;7.65;3.03;;;;;;;;;;5105395;28;20054;-51
2023/12/08 07:49:28;;;;;;;4.50;2.30;;;;;;;;;;5105497;28;20084;-54
2023/12/08 07:51:57;;;;;;;4.63;2.97;;;;;;;;;;5105559;28;20020;-52
2023/12/08 07:54:24;;;;;;;5.50;2.58;;;;;;;;;;5105269;28;20054;-49
2023/12/08 07:56:50;;;;;;;5.28;2.80;;;;;;;;;;5105275;28;20072;-50
2023/12/08 07:59:18;;;;;;;7.75;2.95;;;;;;;;;;5105255;28;20323;-49
2023/12/08 08:01:45;;;;;;;7.05;2.75;;;;;;;;;;5105069;28;20308;-50
2023/12/08 08:04:12;;;;;;;3.40;2.60;;;;;;;;;;5105019;28;20088;-51
2023/12/08 08:06:39;;;;;;;3.45;2.40;;;;;;;;;;5105203;28;20335;-49
2023/12/08 08:09:05;;;;;;;4.57;2.63;;;;;;;;;;5105457;28;20073;-52
2023/12/08 08:11:32;;;;;;;3.95;2.60;;;;;;;;;;5105062;28;20242;-50
2023/12/08 08:13:59;;;;;;;4.47;2.47;;;;;;;;;;5105220;28;20056;-48
2023/12/08 08:16:25;;;;;;;5.75;2.92;;;;;;;;;;5104951;28;20040;-52
2023/12/08 08:18:52;;;;;;;4.78;2.80;;;;;;;;;;5105255;28;20312;-51
2023/12/08 08:21:20;;;;;;;7.65;3.00;;;;;;;;;;5111137;28;20023;-52
2023/12/08 08:23:47;;;;;;;11.23;2.95;;;;;;;;;;5109885;28;20051;-47
2023/12/08 08:26:14;;;;;;;6.30;2.78;;;;;;;;;;5111183;28;20024;-56
2023/12/08 08:28:40;;;;;;;5.05;2.50;;;;;;;;;;5108434;28;20032;-52
2023/12/08 08:31:07;;;;;;;4.20;2.50;;;;;;;;;;5112999;28;20020;-56
2023/12/08 08:33:34;;;;;;;3.25;2.70;;;;;;;;;;5125299;28;20253;-52
2023/12/08 08:36:02;;;;;;;3.92;2.50;;;;;;;;;;5124514;28;20372;-54
2023/12/08 08:38:29;;;;;;;5.50;2.25;;;;;;;;;;5124762;28;20299;-57
2023/12/08 08:40:56;;;;;;;4.25;2.80;;;;;;;;;;5124805;28;20027;-57
2023/12/08 08:43:22;;;;;;;6.35;2.90;;;;;;;;;;5120016;28;20199;-54
2023/12/08 08:45:49;;;;;;;4.57;2.47;;;;;;;;;;5122887;28;20024;-56
2023/12/08 08:48:16;;;;;;;7.55;2.67;;;;;;;;;;5123204;28;20100;-58
2023/12/08 08:50:42;;;;;;;4.82;2.88;;;;;;;;;;5122901;28;20019;-59
2023/12/08 08:53:09;;;;;;;4.63;2.78;;;;;;;;;;5123076;28;20036;-56
2023/12/08 08:55:36;;;;;;;3.67;2.65;;;;;;;;;;5122882;28;20079;-55
2023/12/08 08:58:02;;;;;;;4.72;2.67;;;;;;;;;;5123269;28;20037;-57
2023/12/08 09:00:29;;;;;;;7.10;2.63;;;;;;;;;;5124478;28;20270;-54
2023/12/08 09:02:57;;;;;;;4.15;2.58;;;;;;;;;;5124571;28;20033;-54
2023/12/08 09:05:24;;;;;;;3.83;2.70;;;;;;;;;;5124443;28;20031;-58
2023/12/08 09:07:50;;;;;;;3.75;2.38;;;;;;;;;;5124498;28;20081;-52
2023/12/08 09:10:17;;;;;;;5.75;2.45;;;;;;;;;;5124451;28;20023;-52
2023/12/08 09:12:43;;;;;;;4.10;2.30;;;;;;;;;;5124494;28;20031;-55
2023/12/08 09:15:12;;;;;;;4.18;2.60;;;;;;;;;;5124171;28;20035;-53
2023/12/08 09:17:39;;;;;;;3.80;2.55;;;;;;;;;;5124521;28;20027;-53
2023/12/08 09:20:12;;;;;;;5.00;2.30;;;;;;;;;;5124336;28;20215;-55
2023/12/08 09:22:39;;;;;;;4.30;2.47;;;;;;;;;;5123938;28;20047;-56
2023/12/08 09:25:06;;;;;;;4.93;2.50;;;;;;;;;;5124291;28;20019;-55
2023/12/08 09:27:32;;;;;;;4.15;2.60;;;;;;;;;;5124366;28;20024;-57
2023/12/08 09:29:59;;;;;;;4.13;2.33;;;;;;;;;;5124132;28;20020;-53
2023/12/08 09:32:26;;;;;;;3.97;2.35;;;;;;;;;;5124439;28;20027;-50
2023/12/08 09:34:52;;;;;;;3.55;2.50;;;;;;;;;;5126135;28;20027;-52
2023/12/08 09:37:19;;;;;;;4.32;2.58;;;;;;;;;;5128335;28;20027;-53
2023/12/08 09:39:46;;;;;;;5.28;2.65;;;;;;;;;;5128399;28;20023;-51
2023/12/08 09:42:41;;;;;;;4.65;2.88;;;;;;;;;;5128224;28;20095;-51
2023/12/08 09:45:10;;;;;;;5.63;2.60;;;;;;;;;;5056221;28;20229;-52
2023/12/08 09:47:36;;;;;;;4.50;2.25;;;;;;;;;;5128296;28;20098;-49
2023/12/08 09:50:05;;;;;;;3.55;2.50;;;;;;;;;;5128006;28;20012;-54
2023/12/08 09:52:33;;;;;;;4.47;2.45;;;;;;;;;;5128172;28;20023;-53
2023/12/08 09:55:01;;;;;;;3.55;2.40;;;;;;;;;;5128022;28;20080;-54
2023/12/08 09:57:30;;;;;;;8.55;2.72;;;;;;;;;;5128029;28;20364;-50
2023/12/08 09:59:59;;;;;;;8.88;4.22;;;;;;;;;;5127936;28;20098;-54
2023/12/08 10:02:26;;;;;;;19.23;9.40;;;;;;;;;;5127736;27;20095;-57
2023/12/08 10:04:53;;;;;;;23.65;10.57;;;;;;;;;;5127896;28;20020;-50
2023/12/08 10:07:21;;;;;;;19.00;9.80;;;;;;;;;;5127957;28;20035;-51
2023/12/08 10:09:47;;;;;;;15.63;8.25;;;;;;;;;;5127609;28;20043;-53
2023/12/08 10:12:14;;;;;;;15.50;7.15;;;;;;;;;;5127838;28;20027;-51
2023/12/08 10:14:50;;;;;;;10.38;6.22;;;;;;;;;;5127787;27;20208;-48
2023/12/08 10:17:17;;;;;;;14.63;4.88;;;;;;;;;;5127520;28;20291;-50
2023/12/08 10:19:44;;;;;;;7.45;4.63;;;;;;;;;;5127583;28;20043;-49
2023/12/08 10:22:10;;;;;;;9.00;4.18;;;;;;;;;;5127442;28;20219;-50
2023/12/08 10:24:37;;;;;;;8.48;3.72;;;;;;;;;;5127154;28;20042;-50
2023/12/08 10:27:04;;;;;;;8.13;3.80;;;;;;;;;;5127673;28;20319;-53
2023/12/08 10:29:31;;;;;;;8.65;3.83;;;;;;;;;;5127417;28;20023;-50
2023/12/08 10:31:58;;;;;;;9.18;3.67;;;;;;;;;;5127132;28;20035;-53
2023/12/08 10:34:25;;;;;;;9.02;4.00;;;;;;;;;;5127399;28;20023;-52
2023/12/08 10:36:53;;;;;;;12.23;3.88;;;;;;;;;;5127124;28;20077;-51
2023/12/08 10:39:20;;;;;;;10.15;3.65;;;;;;;;;;5127103;28;20019;-52
2023/12/08 10:41:50;;;;;;;9.25;3.38;;;;;;;;;;5126962;28;20019;-51
2023/12/08 10:44:21;;;;;;;16.45;4.28;;;;;;;;;;5127067;28;20036;-51
2023/12/08 10:46:51;;;;;;;15.55;3.97;;;;;;;;;;5126328;28;20077;-46
2023/12/08 10:49:19;;;;;;;20.50;4.18;;;;;;;;;;5127051;28;20035;-49
2023/12/08 10:51:49;;;;;;;13.45;3.45;;;;;;;;;;5126898;28;20030;-47
2023/12/08 10:54:17;;;;;;;17.88;4.03;;;;;;;;;;5126816;28;20087;-46
2023/12/08 10:56:48;;;;;;;10.93;3.20;;;;;;;;;;5126909;28;20051;-50
2023/12/08 10:59:18;;;;;;;16.13;3.50;;;;;;;;;;5126638;28;20043;-44
2023/12/08 11:01:45;;;;;;;16.33;3.88;;;;;;;;;;5116069;28;20304;-53
2023/12/08 11:04:13;;;;;;;15.75;3.63;;;;;;;;;;5112223;28;20035;-52
2023/12/08 11:07:00;;;;;;;16.77;3.65;;;;;;;;;;5106068;28;20023;-47
2023/12/08 11:09:29;;;;;;;13.50;3.85;;;;;;;;;;5106094;28;20055;-48
2023/12/08 11:12:02;;;;;;;11.07;3.60;;;;;;;;;;5105849;28;20127;-49
2023/12/08 11:14:32;;;;;;;15.60;3.72;;;;;;;;;;5105930;28;20066;-47
2023/12/08 11:17:02;;;;;;;19.52;4.20;;;;;;;;;;5106237;28;20016;-46
2023/12/08 11:19:29;;;;;;;15.38;3.83;;;;;;;;;;5105900;28;20024;-52
2023/12/08 11:21:56;;;;;;;13.43;3.70;;;;;;;;;;5106091;28;20039;-48
2023/12/08 11:24:23;;;;;;;12.38;3.88;;;;;;;;;;5105295;28;20044;-47
2023/12/08 11:27:06;;;;;;;17.95;4.65;;;;;;;;;;5105636;28;20016;-56
2023/12/08 11:29:42;;;;;;;28.83;13.63;;;;;;;;;;5110425;28;20094;-51
2023/12/08 11:32:24;;;;;;;31.08;22.00;;;;;;;;;;5126041;28;20031;-47
2023/12/08 11:34:54;;;;;;;54.22;40.08;;;;;;;;;;5126180;28;20023;-51
2023/12/08 11:37:22;;;;;;;72.93;52.80;;;;;;;;;;5124880;28;20028;-49
2023/12/08 11:39:49;;;;;;;81.80;54.63;;;;;;;;;;5105560;28;20137;-47
2023/12/08 11:42:16;;;;;;;53.33;31.85;;;;;;;;;;5105340;28;20043;-48
2023/12/08 11:44:44;;;;;;;37.65;22.13;;;;;;;;;;5105300;28;20023;-53
2023/12/08 11:47:12;;;;;;;40.67;23.45;;;;;;;;;;5116800;28;20023;-52
2023/12/08 11:49:39;;;;;;;57.00;33.50;;;;;;;;;;5125708;28;20185;-48
2023/12/08 11:52:14;;;;;;;57.35;29.45;;;;;;;;;;5125593;28;20035;-53
2023/12/08 11:55:00;;;;;;;44.88;25.23;;;;;;;;;;5125655;28;20039;-54
2023/12/08 11:57:30;;;;;;;52.72;36.95;;;;;;;;;;5124856;28;20344;-54
2023/12/08 11:59:57;;;;;;;48.13;30.77;;;;;;;;;;5125532;28;20020;-54
2023/12/08 12:02:24;;;;;;;43.67;23.85;;;;;;;;;;5125357;28;20038;-52
2023/12/08 12:04:52;;;;;;;43.97;23.23;;;;;;;;;;5125416;28;20080;-52
2023/12/08 12:07:20;;;;;;;33.67;21.67;;;;;;;;;;5125622;28;20177;-49
2023/12/08 12:09:57;;;;;;;37.75;18.65;;;;;;;;;;5125310;28;20219;-50
2023/12/08 12:12:24;;;;;;;40.80;18.40;;;;;;;;;;5125435;28;20023;-49
2023/12/08 12:14:55;;;;;;;32.55;17.10;;;;;;;;;;5125526;27;20096;-52
2023/12/08 12:17:22;;;;;;;25.90;14.48;;;;;;;;;;5125210;28;20019;-51
2023/12/08 12:19:49;;;;;;;21.83;14.20;;;;;;;;;;5107954;28;20334;-51
2023/12/08 12:22:16;;;;;;;26.48;13.85;;;;;;;;;;5104800;28;20036;-55
2023/12/08 12:24:42;;;;;;;27.80;14.38;;;;;;;;;;5104592;28;20036;-55
2023/12/08 12:27:09;;;;;;;29.40;13.82;;;;;;;;;;5104809;28;20036;-56
2023/12/08 12:29:36;;;;;;;32.72;13.88;;;;;;;;;;5104928;28;20029;-53
2023/12/08 12:32:05;;;;;;;31.25;13.02;;;;;;;;;;5104495;28;20016;-55
2023/12/08 12:34:32;;;;;;;28.90;13.57;;;;;;;;;;5104551;28;20020;-52
2023/12/08 12:36:58;;;;;;;37.17;15.85;;;;;;;;;;5105232;28;20240;-52
2023/12/08 12:39:25;;;;;;;39.08;17.75;;;;;;;;;;5124778;28;20016;-51
2023/12/08 12:41:58;;;;;;;42.75;18.55;;;;;;;;;;5125138;28;20330;-51
2023/12/08 12:44:38;;;;;;;43.00;17.30;;;;;;;;;;5124721;28;20035;-48
2023/12/08 12:47:04;;;;;;;31.80;14.80;;;;;;;;;;5124708;28;20038;-47
2023/12/08 12:49:31;;;;;;;33.65;14.55;;;;;;;;;;5124763;28;20207;-53
2023/12/08 12:51:58;;;;;;;32.22;13.38;;;;;;;;;;5124516;28;20272;-52
2023/12/08 12:54:37;;;;;;;30.75;11.32;;;;;;;;;;5124714;28;20034;-55
2023/12/08 12:57:04;;;;;;;30.83;11.63;;;;;;;;;;5124612;28;20093;-55
2023/12/08 12:59:32;;;;;;;21.40;9.88;;;;;;;;;;5124502;28;20024;-55
2023/12/08 13:01:59;;;;;;;26.17;10.73;;;;;;;;;;5124510;28;20073;-51
2023/12/08 13:04:29;;;;;;;23.88;9.55;;;;;;;;;;5124471;28;20024;-49
2023/12/08 13:06:56;;;;;;;19.77;9.77;;;;;;;;;;5124519;28;20437;-54
2023/12/08 13:09:29;;;;;;;20.20;8.95;;;;;;;;;;5124243;28;20032;-58
2023/12/08 13:11:57;;;;;;;20.65;9.35;;;;;;;;;;5124335;28;20053;-53
2023/12/08 13:14:25;;;;;;;17.08;8.35;;;;;;;;;;5124339;28;20270;-55
2023/12/08 13:16:52;;;;;;;20.90;7.32;;;;;;;;;;5124313;28;20078;-55
2023/12/08 13:19:19;;;;;;;20.85;8.52;;;;;;;;;;5124282;28;20130;-50
2023/12/08 13:21:46;;;;;;;16.05;7.25;;;;;;;;;;5124271;28;20080;-48
2023/12/08 13:24:13;;;;;;;15.90;7.80;;;;;;;;;;5124310;28;20042;-51
2023/12/08 13:26:39;;;;;;;19.45;6.65;;;;;;;;;;5124110;28;20334;-51
2023/12/08 13:29:06;;;;;;;15.45;5.88;;;;;;;;;;5124174;28;20028;-48
2023/12/08 13:31:32;;;;;;;13.48;5.28;;;;;;;;;;5124398;28;20198;-50
2023/12/08 13:33:59;;;;;;;13.15;5.30;;;;;;;;;;5124642;28;20023;-51
2023/12/08 13:36:26;;;;;;;10.05;5.13;;;;;;;;;;5124171;28;20034;-50
2023/12/08 13:38:53;;;;;;;14.05;5.38;;;;;;;;;;5124685;28;20034;-52
2023/12/08 13:41:20;;;;;;;10.98;4.95;;;;;;;;;;5124089;28;20012;-55
2023/12/08 13:43:46;;;;;;;12.32;4.72;;;;;;;;;;5124510;28;20315;-49
2023/12/08 13:46:13;;;;;;;13.27;5.03;;;;;;;;;;5124038;28;20023;-48
2023/12/08 13:48:40;;;;;;;12.68;5.07;;;;;;;;;;5124500;28;20043;-55
2023/12/08 13:51:06;;;;;;;16.65;5.35;;;;;;;;;;5124063;28;20450;-50
2023/12/08 13:53:33;;;;;;;11.30;5.30;;;;;;;;;;5124439;28;20027;-52
2023/12/08 13:56:00;;;;;;;19.27;7.55;;;;;;;;;;5124112;28;20075;-52
2023/12/08 13:58:27;;;;;;;18.23;7.40;;;;;;;;;;5124313;28;20047;-50
2023/12/08 14:00:53;;;;;;;13.75;7.13;;;;;;;;;;5123978;28;20367;-53
2023/12/08 14:03:20;;;;;;;16.08;7.18;;;;;;;;;;5124291;28;20027;-51
2023/12/08 14:05:47;;;;;;;16.58;7.40;;;;;;;;;;5123802;28;20023;-53
2023/12/08 14:08:14;;;;;;;12.63;6.68;;;;;;;;;;5124181;28;20023;-49
2023/12/08 14:10:41;;;;;;;15.27;6.97;;;;;;;;;;5124016;28;20050;-52
2023/12/08 14:13:07;;;;;;;15.18;7.10;;;;;;;;;;5123567;28;20027;-48
2023/12/08 14:15:34;;;;;;;12.73;6.53;;;;;;;;;;5123928;28;20024;-57
2023/12/08 14:18:01;;;;;;;10.57;6.05;;;;;;;;;;5124215;28;20248;-53
2023/12/08 14:20:28;;;;;;;14.38;6.03;;;;;;;;;;5124835;28;20023;-51
2023/12/08 14:22:54;;;;;;;11.35;5.72;;;;;;;;;;5127411;28;20040;-50
2023/12/08 14:25:22;;;;;;;10.85;5.25;;;;;;;;;;5127621;28;20020;-52
2023/12/08 14:27:49;;;;;;;8.90;5.30;;;;;;;;;;5127501;28;20026;-49
2023/12/08 14:30:16;;;;;;;11.18;5.20;;;;;;;;;;5127521;28;20016;-51
2023/12/08 14:32:44;;;;;;;10.82;4.60;;;;;;;;;;5142154;27;20053;-48
2023/12/08 14:35:10;;;;;;;11.20;4.88;;;;;;;;;;5147710;27;20346;-53
2023/12/08 14:37:38;;;;;;;12.73;4.68;;;;;;;;;;5123354;27;20051;-48
2023/12/08 14:40:05;;;;;;;18.33;7.57;;;;;;;;;;5107134;28;20081;-54
2023/12/08 14:42:32;;;;;;;14.80;7.05;;;;;;;;;;5120517;28;20034;-62
2023/12/08 14:45:00;;;;;;;34.78;8.52;;;;;;;;;;5127261;28;20326;-61
2023/12/08 14:47:29;;;;;;;27.70;9.23;;;;;;;;;;5127461;28;20233;-56
2023/12/08 14:49:56;;;;;;;30.80;7.93;;;;;;;;;;5126873;28;20053;-55
2023/12/08 14:52:23;;;;;;;27.10;7.30;;;;;;;;;;5126943;28;20024;-47
2023/12/08 14:54:49;;;;;;;33.05;6.63;;;;;;;;;;5126882;28;20184;-48
2023/12/08 14:57:16;;;;;;;23.08;6.25;;;;;;;;;;5126767;28;20028;-50
2023/12/08 14:59:43;;;;;;;24.30;6.10;;;;;;;;;;5111041;27;20070;-47
2023/12/08 15:02:11;;;;;;;17.83;5.25;;;;;;;;;;5106328;28;20027;-46
2023/12/08 15:04:37;;;;;;;14.05;5.05;;;;;;;;;;5113453;28;20038;-54
2023/12/08 15:07:04;;;;;;;15.27;5.38;;;;;;;;;;5110261;28;20028;-52
2023/12/08 15:09:36;;;;;;;13.98;5.00;;;;;;;;;;5106452;28;20069;-59
2023/12/08 15:12:03;;;;;;;24.20;11.02;;;;;;;;;;5110095;28;20031;-50
2023/12/08 15:14:30;;;;;;;13.27;6.30;;;;;;;;;;5115190;28;20383;-50
2023/12/08 15:16:57;;;;;;;14.88;5.80;;;;;;;;;;5106170;28;20039;-54
2023/12/08 15:19:23;;;;;;;13.98;6.40;;;;;;;;;;5105780;28;20035;-52
2023/12/08 15:21:51;;;;;;;11.05;5.25;;;;;;;;;;5105951;28;20020;-48
2023/12/08 15:24:20;;;;;;;14.55;5.40;;;;;;;;;;5105781;28;20407;-50